sensor_id;sensor_type;location;lat;lon;timestamp;temperature;humidity
72336;DHT22;60293;48.446;8.834;2022-07-06T00:00:43;12.10;99.90
72336;DHT22;60293;48.446;8.834;2022-07-06T00:03:08;12.20;99.90
72336;DHT22;60293;48.446;8.834;2022-07-06T00:05:34;12.20;99.90
72336;DHT22;60293;48.446;8.834;2022-07-06T00:08:00;12.20;99.90
72336;DHT22;60293;48.446;8.834;2022-07-06T00:10:25;12.30;99.90
72336;DHT22;60293;48.446;8.834;2022-07-06T00:12:51;12.30;99.90
72336;DHT22;60293;48.446;8.834;2022-07-06T00:15:16;12.30;99.90
72336;DHT22;60293;48.446;8.834;2022-07-06T00:17:42;12.30;99.90
72336;DHT22;60293;48.446;8.834;2022-07-06T00:20:08;12.10;99.90
72336;DHT22;60293;48.446;8.834;2022-07-06T00:22:34;11.90;99.90
72336;DHT22;60293;48.446;8.834;2022-07-06T00:24:59;11.80;99.90
72336;DHT22;60293;48.446;8.834;2022-07-06T00:27:25;11.80;99.90
72336;DHT22;60293;48.446;8.834;2022-07-06T00:29:51;11.70;99.90
72336;DHT22;60293;48.446;8.834;2022-07-06T00:32:16;11.70;99.90
72336;DHT22;60293;48.446;8.834;2022-07-06T00:34:42;11.80;99.90
72336;DHT22;60293;48.446;8.834;2022-07-06T00:37:08;11.80;99.90
72336;DHT22;60293;48.446;8.834;2022-07-06T00:39:34;11.90;99.90
72336;DHT22;60293;48.446;8.834;2022-07-06T00:42:00;11.90;99.90
72336;DHT22;60293;48.446;8.834;2022-07-06T00:44:26;11.90;99.90
72336;DHT22;60293;48.446;8.834;2022-07-06T00:46:52;12.00;99.90
72336;DHT22;60293;48.446;8.834;2022-07-06T00:49:17;12.00;99.90
72336;DHT22;60293;48.446;8.834;2022-07-06T00:52:02;12.00;99.90
72336;DHT22;60293;48.446;8.834;2022-07-06T00:54:30;12.00;99.90
72336;DHT22;60293;48.446;8.834;2022-07-06T00:56:57;12.00;99.90
72336;DHT22;60293;48.446;8.834;2022-07-06T00:59:23;12.00;99.90
72336;DHT22;60293;48.446;8.834;2022-07-06T01:01:50;12.00;99.90
72336;DHT22;60293;48.446;8.834;2022-07-06T01:04:16;12.00;99.90
72336;DHT22;60293;48.446;8.834;2022-07-06T01:06:43;12.00;99.90
72336;DHT22;60293;48.446;8.834;2022-07-06T01:09:10;12.00;99.90
72336;DHT22;60293;48.446;8.834;2022-07-06T01:11:36;11.70;99.90
72336;DHT22;60293;48.446;8.834;2022-07-06T01:14:02;11.60;99.90
72336;DHT22;60293;48.446;8.834;2022-07-06T01:16:28;11.50;99.90
72336;DHT22;60293;48.446;8.834;2022-07-06T01:18:54;11.40;99.90
72336;DHT22;60293;48.446;8.834;2022-07-06T01:21:20;11.30;99.90
72336;DHT22;60293;48.446;8.834;2022-07-06T01:23:47;11.10;99.90
72336;DHT22;60293;48.446;8.834;2022-07-06T01:26:16;11.00;99.90
72336;DHT22;60293;48.446;8.834;2022-07-06T01:28:43;10.90;99.90
72336;DHT22;60293;48.446;8.834;2022-07-06T01:31:16;10.80;99.90
72336;DHT22;60293;48.446;8.834;2022-07-06T01:33:43;10.90;99.90
72336;DHT22;60293;48.446;8.834;2022-07-06T01:36:09;11.00;99.90
72336;DHT22;60293;48.446;8.834;2022-07-06T01:38:51;11.10;99.90
72336;DHT22;60293;48.446;8.834;2022-07-06T01:41:18;11.20;99.90
72336;DHT22;60293;48.446;8.834;2022-07-06T01:43:44;11.20;99.90
72336;DHT22;60293;48.446;8.834;2022-07-06T01:46:10;11.20;99.90
72336;DHT22;60293;48.446;8.834;2022-07-06T01:48:36;11.00;99.90
72336;DHT22;60293;48.446;8.834;2022-07-06T01:51:02;10.80;99.90
72336;DHT22;60293;48.446;8.834;2022-07-06T01:53:27;10.80;99.90
72336;DHT22;60293;48.446;8.834;2022-07-06T01:55:53;10.70;99.90
72336;DHT22;60293;48.446;8.834;2022-07-06T01:58:19;10.60;99.90
72336;DHT22;60293;48.446;8.834;2022-07-06T02:00:44;10.70;99.90
72336;DHT22;60293;48.446;8.834;2022-07-06T02:03:10;10.80;99.90
72336;DHT22;60293;48.446;8.834;2022-07-06T02:05:35;10.90;99.90
72336;DHT22;60293;48.446;8.834;2022-07-06T02:08:01;11.00;99.90
72336;DHT22;60293;48.446;8.834;2022-07-06T02:10:27;11.00;99.90
72336;DHT22;60293;48.446;8.834;2022-07-06T02:12:52;11.00;99.90
72336;DHT22;60293;48.446;8.834;2022-07-06T02:15:18;11.00;99.90
72336;DHT22;60293;48.446;8.834;2022-07-06T02:17:44;11.10;99.90
72336;DHT22;60293;48.446;8.834;2022-07-06T02:20:09;11.10;99.90
72336;DHT22;60293;48.446;8.834;2022-07-06T02:22:35;11.10;99.90
72336;DHT22;60293;48.446;8.834;2022-07-06T02:25:01;11.10;99.90
72336;DHT22;60293;48.446;8.834;2022-07-06T02:27:26;11.10;99.90
72336;DHT22;60293;48.446;8.834;2022-07-06T02:29:52;11.10;99.90
72336;DHT22;60293;48.446;8.834;2022-07-06T02:32:18;11.10;99.90
72336;DHT22;60293;48.446;8.834;2022-07-06T02:34:43;11.10;99.90
72336;DHT22;60293;48.446;8.834;2022-07-06T02:37:09;11.10;99.90
72336;DHT22;60293;48.446;8.834;2022-07-06T02:39:35;11.10;99.90
72336;DHT22;60293;48.446;8.834;2022-07-06T02:42:01;11.10;99.90
72336;DHT22;60293;48.446;8.834;2022-07-06T02:44:27;11.00;99.90
72336;DHT22;60293;48.446;8.834;2022-07-06T02:46:52;11.00;99.90
72336;DHT22;60293;48.446;8.834;2022-07-06T02:49:18;11.00;99.90
72336;DHT22;60293;48.446;8.834;2022-07-06T02:51:43;10.80;99.90
72336;DHT22;60293;48.446;8.834;2022-07-06T02:54:09;10.70;99.90
72336;DHT22;60293;48.446;8.834;2022-07-06T02:56:35;10.70;99.90
72336;DHT22;60293;48.446;8.834;2022-07-06T02:59:00;10.70;99.90
72336;DHT22;60293;48.446;8.834;2022-07-06T03:01:26;10.70;99.90
72336;DHT22;60293;48.446;8.834;2022-07-06T03:03:52;10.60;99.90
72336;DHT22;60293;48.446;8.834;2022-07-06T03:06:17;10.50;99.90
72336;DHT22;60293;48.446;8.834;2022-07-06T03:08:43;10.40;99.90
72336;DHT22;60293;48.446;8.834;2022-07-06T03:11:08;10.30;99.90
72336;DHT22;60293;48.446;8.834;2022-07-06T03:13:35;10.20;99.90
72336;DHT22;60293;48.446;8.834;2022-07-06T03:16:00;10.20;99.90
72336;DHT22;60293;48.446;8.834;2022-07-06T03:18:26;10.00;99.90
72336;DHT22;60293;48.446;8.834;2022-07-06T03:20:53;9.90;99.90
72336;DHT22;60293;48.446;8.834;2022-07-06T03:23:18;9.90;99.90
72336;DHT22;60293;48.446;8.834;2022-07-06T03:25:45;9.80;99.90
72336;DHT22;60293;48.446;8.834;2022-07-06T03:28:11;9.80;99.90
72336;DHT22;60293;48.446;8.834;2022-07-06T03:30:37;9.80;99.90
72336;DHT22;60293;48.446;8.834;2022-07-06T03:33:03;9.80;99.90
72336;DHT22;60293;48.446;8.834;2022-07-06T03:35:28;9.80;99.90
72336;DHT22;60293;48.446;8.834;2022-07-06T03:37:54;9.80;99.90
72336;DHT22;60293;48.446;8.834;2022-07-06T03:40:20;9.70;99.90
72336;DHT22;60293;48.446;8.834;2022-07-06T03:42:45;9.60;99.90
72336;DHT22;60293;48.446;8.834;2022-07-06T03:45:11;9.60;99.90
72336;DHT22;60293;48.446;8.834;2022-07-06T03:47:37;9.70;99.90
72336;DHT22;60293;48.446;8.834;2022-07-06T03:50:03;9.70;99.90
72336;DHT22;60293;48.446;8.834;2022-07-06T03:52:28;9.90;99.90
72336;DHT22;60293;48.446;8.834;2022-07-06T03:54:55;10.00;99.90
72336;DHT22;60293;48.446;8.834;2022-07-06T03:57:21;10.10;99.90
72336;DHT22;60293;48.446;8.834;2022-07-06T04:09:59;10.40;99.90
72336;DHT22;60293;48.446;8.834;2022-07-06T04:12:25;10.40;99.90
72336;DHT22;60293;48.446;8.834;2022-07-06T04:14:50;10.50;99.90
72336;DHT22;60293;48.446;8.834;2022-07-06T04:17:16;10.50;99.90
72336;DHT22;60293;48.446;8.834;2022-07-06T04:20:00;10.60;99.90
72336;DHT22;60293;48.446;8.834;2022-07-06T04:22:26;10.60;99.90
72336;DHT22;60293;48.446;8.834;2022-07-06T04:24:52;10.50;99.90
72336;DHT22;60293;48.446;8.834;2022-07-06T04:27:17;10.60;99.90
72336;DHT22;60293;48.446;8.834;2022-07-06T04:29:43;10.60;99.90
72336;DHT22;60293;48.446;8.834;2022-07-06T04:32:09;10.60;99.90
72336;DHT22;60293;48.446;8.834;2022-07-06T04:34:34;10.70;99.90
72336;DHT22;60293;48.446;8.834;2022-07-06T04:37:00;10.70;99.90
72336;DHT22;60293;48.446;8.834;2022-07-06T04:39:26;10.80;99.90
72336;DHT22;60293;48.446;8.834;2022-07-06T04:41:51;10.80;99.90
72336;DHT22;60293;48.446;8.834;2022-07-06T04:44:17;10.80;99.90
72336;DHT22;60293;48.446;8.834;2022-07-06T04:46:42;10.80;99.90
72336;DHT22;60293;48.446;8.834;2022-07-06T04:49:08;10.90;99.90
72336;DHT22;60293;48.446;8.834;2022-07-06T04:51:34;10.90;99.90
72336;DHT22;60293;48.446;8.834;2022-07-06T04:53:59;11.00;99.90
72336;DHT22;60293;48.446;8.834;2022-07-06T04:56:25;11.00;99.90
72336;DHT22;60293;48.446;8.834;2022-07-06T04:58:50;11.00;99.90
72336;DHT22;60293;48.446;8.834;2022-07-06T05:01:16;11.00;99.90
72336;DHT22;60293;48.446;8.834;2022-07-06T05:03:42;11.00;99.90
72336;DHT22;60293;48.446;8.834;2022-07-06T05:06:08;11.10;99.90
72336;DHT22;60293;48.446;8.834;2022-07-06T05:08:34;11.10;99.90
72336;DHT22;60293;48.446;8.834;2022-07-06T05:11:00;11.20;99.90
72336;DHT22;60293;48.446;8.834;2022-07-06T05:13:26;11.20;99.90
72336;DHT22;60293;48.446;8.834;2022-07-06T05:15:51;11.30;99.90
72336;DHT22;60293;48.446;8.834;2022-07-06T05:18:17;11.30;99.90
72336;DHT22;60293;48.446;8.834;2022-07-06T05:20:43;11.30;99.90
72336;DHT22;60293;48.446;8.834;2022-07-06T05:23:09;11.30;99.90
72336;DHT22;60293;48.446;8.834;2022-07-06T05:25:35;11.40;99.90
72336;DHT22;60293;48.446;8.834;2022-07-06T05:28:02;11.50;99.90
72336;DHT22;60293;48.446;8.834;2022-07-06T05:30:28;11.50;99.90
72336;DHT22;60293;48.446;8.834;2022-07-06T05:32:54;11.60;99.90
72336;DHT22;60293;48.446;8.834;2022-07-06T05:35:19;11.60;99.90
72336;DHT22;60293;48.446;8.834;2022-07-06T05:37:45;11.70;99.90
72336;DHT22;60293;48.446;8.834;2022-07-06T05:40:11;11.80;99.90
72336;DHT22;60293;48.446;8.834;2022-07-06T05:42:37;11.80;99.90
72336;DHT22;60293;48.446;8.834;2022-07-06T05:45:03;11.90;99.90
72336;DHT22;60293;48.446;8.834;2022-07-06T05:47:29;12.00;99.90
72336;DHT22;60293;48.446;8.834;2022-07-06T05:50:14;12.10;99.90
72336;DHT22;60293;48.446;8.834;2022-07-06T05:52:44;12.20;99.90
72336;DHT22;60293;48.446;8.834;2022-07-06T05:55:11;12.20;99.90
72336;DHT22;60293;48.446;8.834;2022-07-06T05:57:37;12.30;99.90
72336;DHT22;60293;48.446;8.834;2022-07-06T06:00:04;12.40;99.90
72336;DHT22;60293;48.446;8.834;2022-07-06T06:02:38;12.50;99.90
72336;DHT22;60293;48.446;8.834;2022-07-06T06:05:05;12.60;99.90
72336;DHT22;60293;48.446;8.834;2022-07-06T06:07:32;12.70;99.90
72336;DHT22;60293;48.446;8.834;2022-07-06T06:09:58;12.80;99.90
72336;DHT22;60293;48.446;8.834;2022-07-06T06:12:23;12.90;99.90
72336;DHT22;60293;48.446;8.834;2022-07-06T06:14:49;13.10;99.90
72336;DHT22;60293;48.446;8.834;2022-07-06T06:17:14;13.10;99.90
72336;DHT22;60293;48.446;8.834;2022-07-06T06:19:40;13.20;99.90
72336;DHT22;60293;48.446;8.834;2022-07-06T06:22:06;13.30;99.90
72336;DHT22;60293;48.446;8.834;2022-07-06T06:24:32;13.40;99.90
72336;DHT22;60293;48.446;8.834;2022-07-06T06:26:58;13.50;99.90
72336;DHT22;60293;48.446;8.834;2022-07-06T06:29:24;13.60;99.90
72336;DHT22;60293;48.446;8.834;2022-07-06T06:31:50;13.70;99.90
72336;DHT22;60293;48.446;8.834;2022-07-06T06:34:16;13.80;99.90
72336;DHT22;60293;48.446;8.834;2022-07-06T06:36:42;13.90;99.90
72336;DHT22;60293;48.446;8.834;2022-07-06T06:39:07;14.00;99.90
72336;DHT22;60293;48.446;8.834;2022-07-06T06:41:33;14.10;99.90
72336;DHT22;60293;48.446;8.834;2022-07-06T06:43:59;14.30;99.90
72336;DHT22;60293;48.446;8.834;2022-07-06T06:46:24;14.40;99.90
72336;DHT22;60293;48.446;8.834;2022-07-06T06:48:50;14.60;99.90
72336;DHT22;60293;48.446;8.834;2022-07-06T06:51:16;14.70;99.90
72336;DHT22;60293;48.446;8.834;2022-07-06T06:53:41;14.90;99.90
72336;DHT22;60293;48.446;8.834;2022-07-06T06:56:08;15.00;99.90
72336;DHT22;60293;48.446;8.834;2022-07-06T06:58:34;15.10;99.90
72336;DHT22;60293;48.446;8.834;2022-07-06T07:00:59;15.30;99.90
72336;DHT22;60293;48.446;8.834;2022-07-06T07:03:25;15.30;99.90
72336;DHT22;60293;48.446;8.834;2022-07-06T07:05:51;15.50;99.90
72336;DHT22;60293;48.446;8.834;2022-07-06T07:08:16;15.70;99.90
72336;DHT22;60293;48.446;8.834;2022-07-06T07:10:42;15.80;99.90
72336;DHT22;60293;48.446;8.834;2022-07-06T07:13:08;15.90;99.90
72336;DHT22;60293;48.446;8.834;2022-07-06T07:15:33;16.10;99.90
72336;DHT22;60293;48.446;8.834;2022-07-06T07:17:59;16.20;99.90
72336;DHT22;60293;48.446;8.834;2022-07-06T07:20:24;16.30;99.90
72336;DHT22;60293;48.446;8.834;2022-07-06T07:22:50;16.40;99.90
72336;DHT22;60293;48.446;8.834;2022-07-06T07:25:16;16.50;99.90
72336;DHT22;60293;48.446;8.834;2022-07-06T07:27:42;16.60;99.90
72336;DHT22;60293;48.446;8.834;2022-07-06T07:30:08;16.70;99.90
72336;DHT22;60293;48.446;8.834;2022-07-06T07:32:34;16.80;99.90
72336;DHT22;60293;48.446;8.834;2022-07-06T07:35:00;16.90;99.90
72336;DHT22;60293;48.446;8.834;2022-07-06T07:37:26;17.00;99.90
72336;DHT22;60293;48.446;8.834;2022-07-06T07:39:52;17.10;99.90
72336;DHT22;60293;48.446;8.834;2022-07-06T07:42:18;17.10;99.90
72336;DHT22;60293;48.446;8.834;2022-07-06T07:44:43;17.30;99.90
72336;DHT22;60293;48.446;8.834;2022-07-06T07:47:09;17.30;99.90
72336;DHT22;60293;48.446;8.834;2022-07-06T07:49:34;17.40;99.90
72336;DHT22;60293;48.446;8.834;2022-07-06T07:52:00;17.50;99.90
72336;DHT22;60293;48.446;8.834;2022-07-06T07:54:26;17.60;99.90
72336;DHT22;60293;48.446;8.834;2022-07-06T07:56:52;17.60;99.90
72336;DHT22;60293;48.446;8.834;2022-07-06T07:59:17;17.60;99.90
72336;DHT22;60293;48.446;8.834;2022-07-06T08:01:43;17.70;99.90
72336;DHT22;60293;48.446;8.834;2022-07-06T08:04:09;17.80;99.90
72336;DHT22;60293;48.446;8.834;2022-07-06T08:06:34;17.90;99.90
72336;DHT22;60293;48.446;8.834;2022-07-06T08:09:00;18.00;99.90
72336;DHT22;60293;48.446;8.834;2022-07-06T08:11:26;18.10;99.90
72336;DHT22;60293;48.446;8.834;2022-07-06T08:13:51;18.10;99.90
72336;DHT22;60293;48.446;8.834;2022-07-06T08:16:17;18.20;99.90
72336;DHT22;60293;48.446;8.834;2022-07-06T08:18:43;18.20;99.90
72336;DHT22;60293;48.446;8.834;2022-07-06T08:21:08;18.30;99.90
72336;DHT22;60293;48.446;8.834;2022-07-06T08:23:34;18.30;99.90
72336;DHT22;60293;48.446;8.834;2022-07-06T08:26:03;18.30;99.90
72336;DHT22;60293;48.446;8.834;2022-07-06T08:28:29;18.50;99.90
72336;DHT22;60293;48.446;8.834;2022-07-06T08:30:55;18.60;99.90
72336;DHT22;60293;48.446;8.834;2022-07-06T08:33:21;18.60;99.90
72336;DHT22;60293;48.446;8.834;2022-07-06T08:35:47;18.70;99.90
72336;DHT22;60293;48.446;8.834;2022-07-06T08:38:13;18.80;99.90
72336;DHT22;60293;48.446;8.834;2022-07-06T08:40:40;18.90;99.90
72336;DHT22;60293;48.446;8.834;2022-07-06T08:43:06;19.00;99.90
72336;DHT22;60293;48.446;8.834;2022-07-06T08:45:34;19.00;99.90
72336;DHT22;60293;48.446;8.834;2022-07-06T08:48:04;19.00;99.90
72336;DHT22;60293;48.446;8.834;2022-07-06T08:50:31;19.10;99.90
72336;DHT22;60293;48.446;8.834;2022-07-06T08:52:58;19.30;99.90
72336;DHT22;60293;48.446;8.834;2022-07-06T08:55:25;19.30;99.90
72336;DHT22;60293;48.446;8.834;2022-07-06T08:57:51;19.30;99.90
72336;DHT22;60293;48.446;8.834;2022-07-06T09:00:18;19.40;99.90
72336;DHT22;60293;48.446;8.834;2022-07-06T09:02:44;19.50;99.90
72336;DHT22;60293;48.446;8.834;2022-07-06T09:05:14;19.60;99.90
72336;DHT22;60293;48.446;8.834;2022-07-06T09:07:40;19.80;99.90
72336;DHT22;60293;48.446;8.834;2022-07-06T09:10:07;19.80;99.90
72336;DHT22;60293;48.446;8.834;2022-07-06T09:12:33;19.90;99.90
72336;DHT22;60293;48.446;8.834;2022-07-06T09:14:59;20.00;99.90
72336;DHT22;60293;48.446;8.834;2022-07-06T09:17:27;20.00;99.90
72336;DHT22;60293;48.446;8.834;2022-07-06T09:19:53;20.00;99.90
72336;DHT22;60293;48.446;8.834;2022-07-06T09:22:32;20.00;99.90
72336;DHT22;60293;48.446;8.834;2022-07-06T09:25:06;20.10;99.90
72336;DHT22;60293;48.446;8.834;2022-07-06T09:27:39;20.20;99.90
72336;DHT22;60293;48.446;8.834;2022-07-06T09:30:07;20.30;99.90
72336;DHT22;60293;48.446;8.834;2022-07-06T09:32:41;20.40;99.90
72336;DHT22;60293;48.446;8.834;2022-07-06T09:35:09;20.40;99.90
72336;DHT22;60293;48.446;8.834;2022-07-06T09:37:44;20.50;99.90
72336;DHT22;60293;48.446;8.834;2022-07-06T09:40:17;20.60;99.90
72336;DHT22;60293;48.446;8.834;2022-07-06T09:42:43;20.70;99.90
72336;DHT22;60293;48.446;8.834;2022-07-06T09:45:09;20.90;99.90
72336;DHT22;60293;48.446;8.834;2022-07-06T09:47:35;21.10;99.90
72336;DHT22;60293;48.446;8.834;2022-07-06T09:50:05;21.30;99.90
72336;DHT22;60293;48.446;8.834;2022-07-06T09:52:34;21.60;99.90
72336;DHT22;60293;48.446;8.834;2022-07-06T09:55:00;21.80;99.90
72336;DHT22;60293;48.446;8.834;2022-07-06T09:57:25;22.00;99.90
72336;DHT22;60293;48.446;8.834;2022-07-06T09:59:51;22.20;99.90
72336;DHT22;60293;48.446;8.834;2022-07-06T10:02:20;22.60;99.90
72336;DHT22;60293;48.446;8.834;2022-07-06T10:04:45;22.80;95.90
72336;DHT22;60293;48.446;8.834;2022-07-06T10:07:12;23.00;99.90
72336;DHT22;60293;48.446;8.834;2022-07-06T10:09:39;23.30;98.40
72336;DHT22;60293;48.446;8.834;2022-07-06T10:12:09;23.50;95.70
72336;DHT22;60293;48.446;8.834;2022-07-06T10:14:38;23.50;92.20
72336;DHT22;60293;48.446;8.834;2022-07-06T10:17:05;23.50;93.00
72336;DHT22;60293;48.446;8.834;2022-07-06T10:19:32;23.70;92.80
72336;DHT22;60293;48.446;8.834;2022-07-06T10:22:03;23.70;94.30
72336;DHT22;60293;48.446;8.834;2022-07-06T10:24:30;23.70;93.00
72336;DHT22;60293;48.446;8.834;2022-07-06T10:26:56;23.70;87.00
72336;DHT22;60293;48.446;8.834;2022-07-06T10:29:23;23.90;94.10
72336;DHT22;60293;48.446;8.834;2022-07-06T10:31:49;24.00;88.00
72336;DHT22;60293;48.446;8.834;2022-07-06T10:34:18;23.90;91.40
72336;DHT22;60293;48.446;8.834;2022-07-06T10:36:49;24.20;91.40
72336;DHT22;60293;48.446;8.834;2022-07-06T10:39:16;24.10;89.40
72336;DHT22;60293;48.446;8.834;2022-07-06T10:42:00;24.40;91.50
72336;DHT22;60293;48.446;8.834;2022-07-06T10:44:27;24.70;92.30
72336;DHT22;60293;48.446;8.834;2022-07-06T10:46:57;24.90;92.50
72336;DHT22;60293;48.446;8.834;2022-07-06T10:49:26;25.10;89.40
72336;DHT22;60293;48.446;8.834;2022-07-06T10:51:52;24.90;77.10
72336;DHT22;60293;48.446;8.834;2022-07-06T10:54:19;24.70;81.40
72336;DHT22;60293;48.446;8.834;2022-07-06T10:56:49;24.80;85.90
72336;DHT22;60293;48.446;8.834;2022-07-06T10:59:23;24.80;89.80
72336;DHT22;60293;48.446;8.834;2022-07-06T11:02:21;25.10;78.50
72336;DHT22;60293;48.446;8.834;2022-07-06T11:04:48;25.40;77.90
72336;DHT22;60293;48.446;8.834;2022-07-06T11:07:18;25.30;75.50
72336;DHT22;60293;48.446;8.834;2022-07-06T11:09:55;25.50;78.20
72336;DHT22;60293;48.446;8.834;2022-07-06T11:12:21;25.80;77.40
72336;DHT22;60293;48.446;8.834;2022-07-06T11:14:48;26.10;72.50
72336;DHT22;60293;48.446;8.834;2022-07-06T11:17:15;26.30;65.50
72336;DHT22;60293;48.446;8.834;2022-07-06T11:19:58;26.30;67.70
72336;DHT22;60293;48.446;8.834;2022-07-06T11:22:36;26.00;69.60
72336;DHT22;60293;48.446;8.834;2022-07-06T11:25:02;26.30;70.40
72336;DHT22;60293;48.446;8.834;2022-07-06T11:27:29;26.00;62.00
72336;DHT22;60293;48.446;8.834;2022-07-06T11:29:54;26.10;62.40
72336;DHT22;60293;48.446;8.834;2022-07-06T11:32:25;25.90;70.40
72336;DHT22;60293;48.446;8.834;2022-07-06T11:34:51;25.90;72.70
72336;DHT22;60293;48.446;8.834;2022-07-06T11:37:16;25.80;65.50
72336;DHT22;60293;48.446;8.834;2022-07-06T11:39:47;25.50;68.40
72336;DHT22;60293;48.446;8.834;2022-07-06T11:42:15;25.40;71.80
72336;DHT22;60293;48.446;8.834;2022-07-06T11:44:42;25.00;75.20
72336;DHT22;60293;48.446;8.834;2022-07-06T11:47:10;24.80;83.80
72336;DHT22;60293;48.446;8.834;2022-07-06T11:49:37;24.60;87.50
72336;DHT22;60293;48.446;8.834;2022-07-06T11:52:10;24.50;88.50
72336;DHT22;60293;48.446;8.834;2022-07-06T11:54:37;24.30;86.70
72336;DHT22;60293;48.446;8.834;2022-07-06T11:57:03;24.90;90.10
72336;DHT22;60293;48.446;8.834;2022-07-06T11:59:37;25.10;80.50
72336;DHT22;60293;48.446;8.834;2022-07-06T12:02:11;25.20;89.20
72336;DHT22;60293;48.446;8.834;2022-07-06T12:04:44;26.00;82.00
72336;DHT22;60293;48.446;8.834;2022-07-06T12:07:12;26.70;82.60
72336;DHT22;60293;48.446;8.834;2022-07-06T12:09:40;27.10;65.80
72336;DHT22;60293;48.446;8.834;2022-07-06T12:12:06;27.20;70.10
72336;DHT22;60293;48.446;8.834;2022-07-06T12:14:36;27.50;68.70
72336;DHT22;60293;48.446;8.834;2022-07-06T12:17:07;28.00;64.00
72336;DHT22;60293;48.446;8.834;2022-07-06T12:19:33;29.00;62.50
72336;DHT22;60293;48.446;8.834;2022-07-06T12:21:59;29.20;59.90
72336;DHT22;60293;48.446;8.834;2022-07-06T12:24:28;28.70;56.60
72336;DHT22;60293;48.446;8.834;2022-07-06T12:26:55;27.80;58.40
72336;DHT22;60293;48.446;8.834;2022-07-06T12:29:22;27.10;64.20
72336;DHT22;60293;48.446;8.834;2022-07-06T12:31:54;26.80;71.20
72336;DHT22;60293;48.446;8.834;2022-07-06T12:34:22;26.10;73.30
72336;DHT22;60293;48.446;8.834;2022-07-06T12:36:59;25.90;74.50
72336;DHT22;60293;48.446;8.834;2022-07-06T12:39:27;26.40;80.90
72336;DHT22;60293;48.446;8.834;2022-07-06T12:42:03;27.80;66.90
72336;DHT22;60293;48.446;8.834;2022-07-06T12:44:30;29.70;68.00
72336;DHT22;60293;48.446;8.834;2022-07-06T12:47:07;31.10;52.40
72336;DHT22;60293;48.446;8.834;2022-07-06T12:49:35;32.20;52.50
72336;DHT22;60293;48.446;8.834;2022-07-06T12:52:14;32.90;49.30
72336;DHT22;60293;48.446;8.834;2022-07-06T12:54:50;33.40;44.90
72336;DHT22;60293;48.446;8.834;2022-07-06T12:57:24;33.80;44.40
72336;DHT22;60293;48.446;8.834;2022-07-06T13:02:33;34.90;42.20
72336;DHT22;60293;48.446;8.834;2022-07-06T13:05:03;34.70;41.50
72336;DHT22;60293;48.446;8.834;2022-07-06T13:07:30;33.30;42.00
72336;DHT22;60293;48.446;8.834;2022-07-06T13:10:03;31.70;45.70
72336;DHT22;60293;48.446;8.834;2022-07-06T13:12:29;31.50;48.90
72336;DHT22;60293;48.446;8.834;2022-07-06T13:14:55;32.10;47.60
72336;DHT22;60293;48.446;8.834;2022-07-06T13:17:21;32.90;51.20
72336;DHT22;60293;48.446;8.834;2022-07-06T13:19:47;33.90;46.10
72336;DHT22;60293;48.446;8.834;2022-07-06T13:22:14;34.40;45.60
72336;DHT22;60293;48.446;8.834;2022-07-06T13:24:39;34.40;43.10
72336;DHT22;60293;48.446;8.834;2022-07-06T13:27:06;34.30;44.50
72336;DHT22;60293;48.446;8.834;2022-07-06T13:29:31;34.60;41.60
72336;DHT22;60293;48.446;8.834;2022-07-06T13:31:57;35.20;41.50
72336;DHT22;60293;48.446;8.834;2022-07-06T13:34:23;35.00;41.40
72336;DHT22;60293;48.446;8.834;2022-07-06T13:36:50;34.40;40.00
72336;DHT22;60293;48.446;8.834;2022-07-06T13:39:15;34.50;44.10
72336;DHT22;60293;48.446;8.834;2022-07-06T13:41:41;34.00;43.50
72336;DHT22;60293;48.446;8.834;2022-07-06T13:44:07;34.90;41.30
72336;DHT22;60293;48.446;8.834;2022-07-06T13:46:35;35.20;40.40
72336;DHT22;60293;48.446;8.834;2022-07-06T13:49:03;35.00;38.90
72336;DHT22;60293;48.446;8.834;2022-07-06T13:51:29;35.10;38.40
72336;DHT22;60293;48.446;8.834;2022-07-06T13:53:56;33.80;39.00
72336;DHT22;60293;48.446;8.834;2022-07-06T13:56:23;33.10;40.30
72336;DHT22;60293;48.446;8.834;2022-07-06T13:58:49;33.20;42.50
72336;DHT22;60293;48.446;8.834;2022-07-06T14:01:14;33.70;41.00
72336;DHT22;60293;48.446;8.834;2022-07-06T14:03:40;34.40;40.30
72336;DHT22;60293;48.446;8.834;2022-07-06T14:06:07;34.70;40.20
72336;DHT22;60293;48.446;8.834;2022-07-06T14:08:34;35.30;39.50
72336;DHT22;60293;48.446;8.834;2022-07-06T14:11:00;35.70;38.10
72336;DHT22;60293;48.446;8.834;2022-07-06T14:13:26;35.70;37.80
72336;DHT22;60293;48.446;8.834;2022-07-06T14:15:52;35.60;36.60
72336;DHT22;60293;48.446;8.834;2022-07-06T14:18:18;35.90;36.40
72336;DHT22;60293;48.446;8.834;2022-07-06T14:20:45;36.60;34.70
72336;DHT22;60293;48.446;8.834;2022-07-06T14:23:12;36.60;34.40
72336;DHT22;60293;48.446;8.834;2022-07-06T14:25:39;36.80;34.60
72336;DHT22;60293;48.446;8.834;2022-07-06T14:28:05;37.20;34.70
72336;DHT22;60293;48.446;8.834;2022-07-06T14:30:32;37.30;33.50
72336;DHT22;60293;48.446;8.834;2022-07-06T14:32:58;36.50;33.40
72336;DHT22;60293;48.446;8.834;2022-07-06T14:35:24;35.00;34.90
72336;DHT22;60293;48.446;8.834;2022-07-06T14:37:50;34.00;39.10
72336;DHT22;60293;48.446;8.834;2022-07-06T14:40:16;33.90;38.50
72336;DHT22;60293;48.446;8.834;2022-07-06T14:42:42;34.50;38.40
72336;DHT22;60293;48.446;8.834;2022-07-06T14:45:08;33.70;37.10
72336;DHT22;60293;48.446;8.834;2022-07-06T14:47:34;33.80;39.80
72336;DHT22;60293;48.446;8.834;2022-07-06T14:50:02;34.60;37.30
72336;DHT22;60293;48.446;8.834;2022-07-06T14:52:28;34.90;36.20
72336;DHT22;60293;48.446;8.834;2022-07-06T14:54:54;34.50;36.00
72336;DHT22;60293;48.446;8.834;2022-07-06T14:57:20;34.20;38.30
72336;DHT22;60293;48.446;8.834;2022-07-06T14:59:45;34.50;37.30
72336;DHT22;60293;48.446;8.834;2022-07-06T15:02:11;34.20;37.30
72336;DHT22;60293;48.446;8.834;2022-07-06T15:04:37;33.70;37.30
72336;DHT22;60293;48.446;8.834;2022-07-06T15:07:03;33.20;38.20
72336;DHT22;60293;48.446;8.834;2022-07-06T15:09:28;32.80;39.70
72336;DHT22;60293;48.446;8.834;2022-07-06T15:11:56;32.60;40.70
72336;DHT22;60293;48.446;8.834;2022-07-06T15:14:22;32.80;41.20
72336;DHT22;60293;48.446;8.834;2022-07-06T15:16:48;33.20;38.90
72336;DHT22;60293;48.446;8.834;2022-07-06T15:19:14;33.00;40.80
72336;DHT22;60293;48.446;8.834;2022-07-06T15:21:40;33.20;38.70
72336;DHT22;60293;48.446;8.834;2022-07-06T15:24:06;32.40;39.40
72336;DHT22;60293;48.446;8.834;2022-07-06T15:26:32;31.30;42.70
72336;DHT22;60293;48.446;8.834;2022-07-06T15:28:58;30.90;45.20
72336;DHT22;60293;48.446;8.834;2022-07-06T15:31:23;31.50;45.70
72336;DHT22;60293;48.446;8.834;2022-07-06T15:33:49;31.40;42.70
72336;DHT22;60293;48.446;8.834;2022-07-06T15:36:15;30.90;43.10
72336;DHT22;60293;48.446;8.834;2022-07-06T15:38:40;31.10;44.20
72336;DHT22;60293;48.446;8.834;2022-07-06T15:41:06;30.40;45.10
72336;DHT22;60293;48.446;8.834;2022-07-06T15:43:32;29.60;46.90